SAS44R ENTC-EFHK
Flight info
| Callsign | SAS44R |
|---|---|
| Flight time | N/A |
| Altitude | 39000 |
| Route | MOKAX DCT IBOSU Y86 LUSEP |
| Aircraft | A339/H-SADE1E2E3GHIJ3J5M1P2RWXY/LB2D1 |
Departure
| Time | 2026-04-30 17:55 |
|---|---|
| Airport | Tromsø Airport (ENTC) |
Arrival
| Time | N/A |
|---|---|
| Airport | Helsinki Vantaa Airport (EFHK) |
| Time | Latitude | Longitude | Altitude | Speed | Heading |
|---|---|---|---|---|---|
| 2026-04-30 17:39 | 69.68121 | 18.90988 | 41 ft | 0 kts | 283° |
| 2026-04-30 17:43 | 69.68119 | 18.91016 | 41 ft | 2 kts | 283° |
| 2026-04-30 17:44 | 69.68108 | 18.91156 | 41 ft | 2 kts | 283° |
| 2026-04-30 17:44 | 69.68095 | 18.91280 | 40 ft | 2 kts | 311° |
| 2026-04-30 17:46 | 69.68051 | 18.91321 | 40 ft | 0 kts | 13° |
| 2026-04-30 17:48 | 69.68055 | 18.91324 | 40 ft | 2 kts | 13° |
| 2026-04-30 17:48 | 69.68240 | 18.91439 | 37 ft | 13 kts | 12° |
| 2026-04-30 17:49 | 69.68703 | 18.91660 | 28 ft | 11 kts | 17° |
| 2026-04-30 17:50 | 69.68768 | 18.91925 | 26 ft | 2 kts | 101° |
| 2026-04-30 17:51 | 69.68792 | 18.92202 | 27 ft | 7 kts | 15° |
| 2026-04-30 17:52 | 69.69021 | 18.92353 | 25 ft | 16 kts | 13° |
| 2026-04-30 17:53 | 69.69337 | 18.92633 | 25 ft | 4 kts | 41° |
| 2026-04-30 17:54 | 69.69253 | 18.92505 | 24 ft | 11 kts | 193° |
| 2026-04-30 17:55 | 69.66229 | 18.90442 | 1712 ft | 142 kts | 195° |
| 2026-04-30 17:56 | 69.62212 | 18.87466 | 4060 ft | 166 kts | 200° |
| 2026-04-30 17:57 | 69.58113 | 18.85173 | 5527 ft | 209 kts | 193° |
| 2026-04-30 17:58 | 69.53059 | 18.88283 | 6721 ft | 276 kts | 172° |
| 2026-04-30 17:59 | 69.46241 | 18.95190 | 9338 ft | 305 kts | 152° |
| 2026-04-30 18:00 | 69.38881 | 19.13877 | 11460 ft | 364 kts | 142° |
| 2026-04-30 18:00 | 69.33752 | 19.27021 | 13188 ft | 381 kts | 142° |
| 2026-04-30 18:01 | 69.29773 | 19.37084 | 14567 ft | 390 kts | 142° |
| 2026-04-30 18:02 | 69.22938 | 19.54215 | 16754 ft | 405 kts | 142° |
| 2026-04-30 18:02 | 69.17287 | 19.68275 | 18471 ft | 415 kts | 142° |
| 2026-04-30 18:03 | 69.09987 | 19.86274 | 20475 ft | 429 kts | 144° |
| 2026-04-30 18:04 | 69.02235 | 19.97818 | 22097 ft | 426 kts | 167° |
| 2026-04-30 18:05 | 68.91832 | 20.07619 | 23986 ft | 438 kts | 167° |
| 2026-04-30 18:06 | 68.80353 | 20.18515 | 26163 ft | 444 kts | 167° |
| 2026-04-30 18:07 | 68.68581 | 20.29625 | 27888 ft | 457 kts | 167° |
| 2026-04-30 18:08 | 68.58511 | 20.39038 | 29247 ft | 466 kts | 167° |
| 2026-04-30 18:09 | 68.47192 | 20.49510 | 30583 ft | 476 kts | 167° |
| 2026-04-30 18:10 | 68.33516 | 20.62020 | 31975 ft | 486 kts | 167° |
| 2026-04-30 18:11 | 68.21944 | 20.72495 | 33542 ft | 483 kts | 168° |
| 2026-04-30 18:11 | 68.11242 | 20.82059 | 34410 ft | 491 kts | 168° |
| 2026-04-30 18:12 | 68.02595 | 20.89721 | 35044 ft | 497 kts | 168° |
| 2026-04-30 18:13 | 67.96130 | 20.95424 | 35956 ft | 490 kts | 168° |
| 2026-04-30 18:13 | 67.86413 | 21.03909 | 36537 ft | 496 kts | 168° |
| 2026-04-30 18:14 | 67.78803 | 21.10519 | 37405 ft | 494 kts | 168° |
| 2026-04-30 18:15 | 67.69088 | 21.18875 | 38246 ft | 495 kts | 167° |
| 2026-04-30 18:15 | 67.59269 | 21.27245 | 38713 ft | 502 kts | 167° |
| 2026-04-30 18:16 | 67.53708 | 21.31955 | 38835 ft | 506 kts | 166° |
| 2026-04-30 18:16 | 67.45897 | 21.38529 | 39019 ft | 512 kts | 166° |
| 2026-04-30 18:17 | 67.40240 | 21.43268 | 39099 ft | 520 kts | 166° |
| 2026-04-30 18:18 | 67.28695 | 21.52866 | 39050 ft | 528 kts | 166° |
| 2026-04-30 18:18 | 67.22918 | 21.57643 | 39083 ft | 528 kts | 166° |
| 2026-04-30 18:19 | 67.14784 | 21.64311 | 39096 ft | 529 kts | 166° |
| 2026-04-30 18:19 | 67.08939 | 21.69072 | 39079 ft | 529 kts | 167° |
| 2026-04-30 18:20 | 67.00784 | 21.75668 | 39077 ft | 531 kts | 166° |
| 2026-04-30 18:20 | 66.94978 | 21.80340 | 39061 ft | 532 kts | 166° |
| 2026-04-30 18:21 | 66.86784 | 21.86910 | 39044 ft | 532 kts | 166° |
| 2026-04-30 18:21 | 66.79720 | 21.92522 | 39070 ft | 532 kts | 166° |
| 2026-04-30 18:22 | 66.72688 | 21.98074 | 39091 ft | 533 kts | 166° |
| 2026-04-30 18:22 | 66.63301 | 22.05428 | 39088 ft | 533 kts | 165° |
| 2026-04-30 18:23 | 66.55092 | 22.11842 | 39092 ft | 532 kts | 165° |
| 2026-04-30 18:23 | 66.48089 | 22.17263 | 39099 ft | 533 kts | 166° |
| 2026-04-30 18:24 | 66.37516 | 22.25370 | 39113 ft | 533 kts | 165° |
| 2026-04-30 18:25 | 66.31636 | 22.29853 | 39099 ft | 533 kts | 165° |
| 2026-04-30 18:25 | 66.19893 | 22.38759 | 39075 ft | 532 kts | 165° |
| 2026-04-30 18:26 | 66.10513 | 22.45801 | 39115 ft | 532 kts | 165° |
| 2026-04-30 18:27 | 65.99926 | 22.53680 | 39124 ft | 533 kts | 165° |
| 2026-04-30 18:28 | 65.88162 | 22.62360 | 39049 ft | 532 kts | 165° |
| 2026-04-30 18:28 | 65.78807 | 22.69207 | 39106 ft | 532 kts | 165° |
| 2026-04-30 18:29 | 65.63519 | 22.80280 | 39078 ft | 531 kts | 165° |
| 2026-04-30 18:30 | 65.50599 | 22.89532 | 39127 ft | 531 kts | 165° |
| 2026-04-30 18:31 | 65.38805 | 22.97888 | 39093 ft | 532 kts | 165° |
| 2026-04-30 18:32 | 65.29385 | 23.04513 | 39111 ft | 533 kts | 165° |
| 2026-04-30 18:33 | 65.18796 | 23.11902 | 39083 ft | 533 kts | 165° |
| 2026-04-30 18:33 | 65.06989 | 23.20056 | 39103 ft | 534 kts | 164° |
| 2026-04-30 18:34 | 64.97509 | 23.26564 | 39104 ft | 533 kts | 165° |
| 2026-04-30 18:35 | 64.90421 | 23.31390 | 39103 ft | 534 kts | 165° |
| 2026-04-30 18:35 | 64.83289 | 23.36219 | 39103 ft | 535 kts | 165° |
| 2026-04-30 18:36 | 64.71468 | 23.44167 | 39108 ft | 536 kts | 164° |
| 2026-04-30 18:37 | 64.60737 | 23.51329 | 39105 ft | 536 kts | 164° |
| 2026-04-30 18:37 | 64.54801 | 23.55257 | 39115 ft | 536 kts | 164° |
| 2026-04-30 18:38 | 64.46508 | 23.60721 | 39114 ft | 536 kts | 163° |
| 2026-04-30 18:38 | 64.40520 | 23.64642 | 39118 ft | 537 kts | 164° |
| 2026-04-30 18:39 | 64.33407 | 23.69290 | 39112 ft | 537 kts | 165° |
| 2026-04-30 18:39 | 64.26226 | 23.73945 | 39126 ft | 537 kts | 165° |
| 2026-04-30 18:40 | 64.19069 | 23.78562 | 39120 ft | 538 kts | 165° |
| 2026-04-30 18:40 | 64.11885 | 23.83168 | 39112 ft | 538 kts | 165° |
| 2026-04-30 18:41 | 64.04750 | 23.87723 | 39125 ft | 538 kts | 165° |
| 2026-04-30 18:41 | 63.96374 | 23.93042 | 39113 ft | 539 kts | 165° |
| 2026-04-30 18:42 | 63.90376 | 23.96822 | 39125 ft | 539 kts | 165° |
| 2026-04-30 18:42 | 63.79578 | 24.03598 | 39072 ft | 539 kts | 164° |
| 2026-04-30 18:45 | 63.42663 | 24.26351 | 39149 ft | 525 kts | 164° |
| 2026-04-30 18:45 | 63.40317 | 24.27782 | 39100 ft | 525 kts | 164° |
| 2026-04-30 18:46 | 63.33305 | 24.32024 | 39123 ft | 526 kts | 163° |
| 2026-04-30 18:46 | 63.26301 | 24.36241 | 39101 ft | 526 kts | 164° |
| 2026-04-30 18:47 | 63.18098 | 24.41155 | 38683 ft | 526 kts | 163° |
| 2026-04-30 18:47 | 63.15768 | 24.42547 | 38482 ft | 524 kts | 164° |
| 2026-04-30 18:47 | 63.12252 | 24.44648 | 38128 ft | 521 kts | 163° |
| 2026-04-30 18:47 | 63.07655 | 24.47375 | 37430 ft | 520 kts | 163° |
| 2026-04-30 18:48 | 63.04147 | 24.49448 | 36819 ft | 519 kts | 163° |
| 2026-04-30 18:48 | 63.00719 | 24.51477 | 36322 ft | 519 kts | 163° |
| 2026-04-30 18:48 | 62.98405 | 24.52844 | 36013 ft | 522 kts | 163° |
| 2026-04-30 18:48 | 62.93698 | 24.55610 | 35395 ft | 525 kts | 163° |
| 2026-04-30 18:49 | 62.91391 | 24.56968 | 35090 ft | 525 kts | 163° |
| 2026-04-30 18:49 | 62.87848 | 24.59042 | 34578 ft | 528 kts | 163° |
| 2026-04-30 18:49 | 62.84313 | 24.61104 | 33944 ft | 530 kts | 163° |
| 2026-04-30 18:49 | 62.79631 | 24.63838 | 33107 ft | 531 kts | 163° |
| 2026-04-30 18:50 | 62.76052 | 24.65918 | 32467 ft | 532 kts | 164° |
| 2026-04-30 18:50 | 62.73663 | 24.67306 | 32042 ft | 533 kts | 164° |
| 2026-04-30 18:50 | 62.70114 | 24.69360 | 31409 ft | 534 kts | 164° |
| 2026-04-30 18:50 | 62.66569 | 24.71402 | 30779 ft | 534 kts | 165° |
| 2026-04-30 18:51 | 62.61781 | 24.74151 | 30014 ft | 530 kts | 165° |
| 2026-04-30 18:51 | 62.59425 | 24.75501 | 29665 ft | 528 kts | 164° |
| 2026-04-30 18:51 | 62.54763 | 24.78162 | 29006 ft | 523 kts | 164° |
| 2026-04-30 18:51 | 62.51280 | 24.80153 | 28531 ft | 519 kts | 165° |
| 2026-04-30 18:52 | 62.48955 | 24.81480 | 28214 ft | 516 kts | 165° |
| 2026-04-30 18:52 | 62.45499 | 24.83441 | 27743 ft | 512 kts | 165° |
| 2026-04-30 18:52 | 62.42084 | 24.85376 | 27289 ft | 507 kts | 164° |
| 2026-04-30 18:52 | 62.38724 | 24.87279 | 26907 ft | 502 kts | 164° |
| 2026-04-30 18:53 | 62.34285 | 24.89783 | 26387 ft | 495 kts | 164° |
| 2026-04-30 18:53 | 62.32055 | 24.91039 | 26163 ft | 490 kts | 164° |
| 2026-04-30 18:53 | 62.28780 | 24.92879 | 25823 ft | 485 kts | 164° |
| 2026-04-30 18:53 | 62.25587 | 24.94672 | 25479 ft | 480 kts | 164° |
| 2026-04-30 18:54 | 62.22338 | 24.96485 | 25137 ft | 478 kts | 164° |
| 2026-04-30 18:54 | 62.18077 | 24.98859 | 24635 ft | 476 kts | 164° |
| 2026-04-30 18:54 | 62.14929 | 25.00613 | 24191 ft | 473 kts | 165° |
| 2026-04-30 18:54 | 62.12803 | 25.01796 | 23902 ft | 471 kts | 164° |
| 2026-04-30 18:55 | 62.08619 | 25.04116 | 23447 ft | 465 kts | 163° |
| 2026-04-30 18:55 | 62.03478 | 25.06952 | 22835 ft | 457 kts | 164° |
| 2026-04-30 18:55 | 62.00451 | 25.08621 | 22516 ft | 452 kts | 164° |
| 2026-04-30 18:56 | 61.94424 | 25.11939 | 21769 ft | 445 kts | 164° |
| 2026-04-30 18:56 | 61.90457 | 25.14109 | 21256 ft | 441 kts | 163° |
| 2026-04-30 18:56 | 61.88474 | 25.15193 | 20992 ft | 439 kts | 164° |
| 2026-04-30 18:57 | 61.82633 | 25.18383 | 20198 ft | 433 kts | 164° |
| 2026-04-30 18:57 | 61.79756 | 25.19950 | 19799 ft | 430 kts | 164° |
| 2026-04-30 18:57 | 61.75920 | 25.22026 | 19344 ft | 426 kts | 164° |
| 2026-04-30 18:58 | 61.70197 | 25.25121 | 18835 ft | 426 kts | 164° |
| 2026-04-30 18:58 | 61.68275 | 25.26157 | 18541 ft | 426 kts | 164° |
| 2026-04-30 18:58 | 61.65458 | 25.27672 | 18168 ft | 423 kts | 164° |
| 2026-04-30 18:59 | 61.59702 | 25.29494 | 17412 ft | 418 kts | 179° |
| 2026-04-30 19:00 | 61.51113 | 25.29087 | 16209 ft | 413 kts | 182° |
| 2026-04-30 19:00 | 61.48243 | 25.28909 | 15752 ft | 412 kts | 182° |
| 2026-04-30 19:00 | 61.42561 | 25.28612 | 14974 ft | 407 kts | 181° |
| 2026-04-30 19:01 | 61.36074 | 25.28321 | 14206 ft | 398 kts | 181° |
| 2026-04-30 19:01 | 61.34221 | 25.28233 | 13981 ft | 395 kts | 181° |
| 2026-04-30 19:02 | 61.28815 | 25.27988 | 13441 ft | 389 kts | 181° |
| 2026-04-30 19:02 | 61.23422 | 25.27744 | 12934 ft | 389 kts | 182° |
| 2026-04-30 19:03 | 61.18063 | 25.27496 | 12350 ft | 386 kts | 181° |
| 2026-04-30 19:03 | 61.12723 | 25.27258 | 11561 ft | 384 kts | 181° |
| 2026-04-30 19:04 | 61.07416 | 25.27021 | 10853 ft | 378 kts | 181° |
| 2026-04-30 19:04 | 61.02216 | 25.26788 | 10276 ft | 369 kts | 181° |
| 2026-04-30 19:05 | 60.97285 | 25.26570 | 10211 ft | 345 kts | 181° |
| 2026-04-30 19:05 | 60.92632 | 25.26618 | 10126 ft | 323 kts | 178° |
| 2026-04-30 19:06 | 60.88176 | 25.26926 | 10138 ft | 323 kts | 178° |
| 2026-04-30 19:06 | 60.85933 | 25.27080 | 10135 ft | 323 kts | 178° |
| 2026-04-30 19:06 | 60.81472 | 25.27366 | 10134 ft | 324 kts | 178° |
| 2026-04-30 19:07 | 60.76976 | 25.27657 | 10137 ft | 323 kts | 178° |
| 2026-04-30 19:07 | 60.74756 | 25.27801 | 10149 ft | 322 kts | 178° |
| 2026-04-30 19:08 | 60.70256 | 25.28027 | 10138 ft | 323 kts | 185° |
| 2026-04-30 19:08 | 60.66579 | 25.23655 | 9874 ft | 309 kts | 236° |
| 2026-04-30 19:08 | 60.65292 | 25.20255 | 9620 ft | 305 kts | 238° |
| 2026-04-30 19:09 | 60.62639 | 25.13526 | 8927 ft | 308 kts | 234° |
| 2026-04-30 19:09 | 60.61217 | 25.10240 | 8441 ft | 315 kts | 232° |
| 2026-04-30 19:09 | 60.59230 | 25.05801 | 7817 ft | 323 kts | 229° |
| 2026-04-30 19:10 | 60.55941 | 25.02293 | 6949 ft | 324 kts | 187° |
| 2026-04-30 19:10 | 60.51858 | 25.04116 | 6362 ft | 288 kts | 150° |
| 2026-04-30 19:11 | 60.50347 | 25.06469 | 6183 ft | 265 kts | 121° |
| 2026-04-30 19:11 | 60.49031 | 25.12834 | 5909 ft | 237 kts | 101° |
| 2026-04-30 19:11 | 60.48577 | 25.15998 | 5712 ft | 233 kts | 101° |
| 2026-04-30 19:12 | 60.47636 | 25.19785 | 5442 ft | 228 kts | 136° |
| 2026-04-30 19:12 | 60.46749 | 25.20912 | 5305 ft | 225 kts | 161° |
| 2026-04-30 19:12 | 60.45240 | 25.21260 | 5134 ft | 219 kts | 184° |
| 2026-04-30 19:13 | 60.42260 | 25.20049 | 4370 ft | 224 kts | 218° |
| 2026-04-30 19:13 | 60.40478 | 25.15060 | 3367 ft | 221 kts | 242° |
| 2026-04-30 19:13 | 60.39304 | 25.11765 | 2725 ft | 216 kts | 234° |
| 2026-04-30 19:14 | 60.38673 | 25.10218 | 2392 ft | 215 kts | 232° |
| 2026-04-30 19:14 | 60.37678 | 25.07997 | 1899 ft | 214 kts | 231° |